Time;durP1;ratioP1;P1;durP2;ratioP2;P2;SDS_P1;SDS_P2;PMS_P1;PMS_P2;Temp;Humidity;BMP_temperature;BMP_pressure;BME280_temperature;BME280_humidity;BME280_pressure;Samples;Min_cycle;Max_cycle;Signal;HPM_P1;HPM_P2
2021/09/04 00:00:23;;;;;;;17.02;9.35;;;14.20;99.90;;;;;;5012352;28;20025;-79
2021/09/04 00:02:48;;;;;;;22.80;8.88;;;14.20;99.90;;;;;;4994788;28;20054;-80
2021/09/04 00:05:14;;;;;;;17.45;8.63;;;14.20;99.90;;;;;;5011495;28;20545;-79
2021/09/04 00:07:40;;;;;;;33.20;8.32;;;14.10;99.90;;;;;;4994610;28;20505;-80
2021/09/04 00:10:06;;;;;;;23.52;9.57;;;14.20;99.90;;;;;;4994637;28;20424;-79
2021/09/04 00:12:32;;;;;;;20.70;9.10;;;14.20;99.90;;;;;;4994653;28;20029;-79
2021/09/04 00:14:58;;;;;;;28.15;9.90;;;14.20;99.90;;;;;;4994102;28;20030;-79
2021/09/04 00:17:23;;;;;;;22.23;10.43;;;14.10;99.90;;;;;;4994346;28;20527;-79
2021/09/04 00:19:49;;;;;;;26.83;9.55;;;14.20;99.90;;;;;;5012137;28;20037;-79
2021/09/04 00:22:14;;;;;;;20.75;8.93;;;14.10;99.90;;;;;;4994372;28;20065;-79
2021/09/04 00:24:40;;;;;;;26.55;9.32;;;14.20;99.90;;;;;;4994066;28;20049;-79
2021/09/04 00:27:06;;;;;;;24.58;10.00;;;14.20;99.90;;;;;;5012013;28;20149;-80
2021/09/04 00:29:33;;;;;;;36.47;9.88;;;14.20;99.90;;;;;;5012098;28;20032;-79
2021/09/04 00:31:59;;;;;;;26.95;8.93;;;14.10;99.90;;;;;;5012083;28;20033;-80
2021/09/04 00:34:25;;;;;;;22.52;9.50;;;14.10;99.90;;;;;;5011833;28;20040;-80
2021/09/04 00:36:51;;;;;;;26.02;10.30;;;14.10;99.90;;;;;;5011412;28;20030;-79
2021/09/04 00:39:17;;;;;;;25.40;10.48;;;14.10;99.90;;;;;;5011941;28;20367;-80
2021/09/04 00:41:44;;;;;;;27.73;12.27;;;14.10;99.90;;;;;;5011928;28;20026;-79
2021/09/04 00:44:15;;;;;;;19.60;10.20;;;14.20;99.90;;;;;;5011691;28;20021;-79
2021/09/04 00:46:41;;;;;;;23.58;9.40;;;14.20;99.90;;;;;;5011556;28;20034;-79
2021/09/04 00:49:07;;;;;;;21.58;10.48;;;14.20;99.90;;;;;;5011867;28;20398;-80
2021/09/04 00:51:33;;;;;;;32.78;11.13;;;14.10;99.90;;;;;;4997366;28;20517;-79
2021/09/04 00:53:58;;;;;;;27.15;10.40;;;14.10;99.90;;;;;;4998006;28;20026;-80
2021/09/04 00:56:25;;;;;;;28.05;11.23;;;14.00;99.90;;;;;;4997538;28;20026;-80
2021/09/04 00:58:50;;;;;;;19.52;10.02;;;14.10;99.90;;;;;;5015677;28;20026;-80
2021/09/04 01:01:16;;;;;;;28.85;10.20;;;14.00;99.90;;;;;;4997806;28;20048;-79
2021/09/04 01:03:42;;;;;;;21.85;9.75;;;14.00;99.90;;;;;;4997884;28;20018;-79
2021/09/04 01:06:07;;;;;;;20.35;10.88;;;14.10;99.90;;;;;;5015013;28;21433;-79
2021/09/04 01:08:33;;;;;;;27.42;10.90;;;14.00;99.90;;;;;;5015509;28;20026;-80
2021/09/04 01:10:58;;;;;;;20.10;10.30;;;14.00;99.90;;;;;;5015699;28;20041;-80
2021/09/04 01:13:24;;;;;;;24.35;10.65;;;13.90;99.90;;;;;;5015371;28;20032;-79
2021/09/04 01:15:50;;;;;;;33.60;11.77;;;13.90;99.90;;;;;;5013818;28;20076;-79
2021/09/04 01:18:16;;;;;;;28.98;11.63;;;14.00;99.90;;;;;;4997180;28;20510;-79
2021/09/04 01:20:42;;;;;;;22.95;10.20;;;13.90;99.90;;;;;;4997493;28;20101;-79
2021/09/04 01:23:08;;;;;;;29.00;10.75;;;13.90;99.90;;;;;;4997638;28;20064;-79
2021/09/04 01:25:34;;;;;;;23.65;10.40;;;13.90;99.90;;;;;;5014857;28;20037;-79
2021/09/04 01:28:02;;;;;;;27.60;10.40;;;14.00;99.90;;;;;;5013568;28;20478;-79
2021/09/04 01:30:28;;;;;;;23.35;10.05;;;13.70;99.90;;;;;;5014717;28;20541;-79
2021/09/04 01:32:54;;;;;;;23.63;9.95;;;13.70;99.90;;;;;;5015021;28;20022;-79
2021/09/04 01:35:23;;;;;;;23.00;10.13;;;13.70;99.90;;;;;;5014440;28;20509;-79
2021/09/04 01:37:49;;;;;;;25.05;10.38;;;13.60;99.90;;;;;;5014844;28;20491;-79
2021/09/04 01:40:16;;;;;;;22.98;10.20;;;13.70;99.90;;;;;;5014851;28;20101;-79
2021/09/04 01:42:44;;;;;;;26.20;10.68;;;13.60;99.90;;;;;;4997339;28;20413;-79
2021/09/04 01:45:10;;;;;;;22.02;12.60;;;13.60;99.90;;;;;;4996902;28;20025;-79
2021/09/04 01:47:35;;;;;;;22.92;10.75;;;13.50;99.90;;;;;;4996956;28;20030;-79
2021/09/04 01:50:02;;;;;;;31.52;11.40;;;13.50;99.90;;;;;;4997040;28;20018;-79
2021/09/04 01:52:28;;;;;;;26.25;10.80;;;13.50;99.90;;;;;;5014654;28;20483;-79
2021/09/04 01:54:53;;;;;;;22.98;11.15;;;13.50;99.90;;;;;;5014416;28;20036;-79
2021/09/04 01:57:19;;;;;;;30.27;11.70;;;13.50;99.90;;;;;;4996763;28;20044;-80
2021/09/04 01:59:46;;;;;;;36.70;11.98;;;13.50;99.90;;;;;;5014375;28;20022;-79
2021/09/04 02:02:12;;;;;;;28.77;11.85;;;13.50;99.90;;;;;;5012699;28;20021;-79
2021/09/04 02:04:37;;;;;;;24.95;12.57;;;13.50;99.90;;;;;;5014219;28;20025;-79
2021/09/04 02:07:04;;;;;;;24.30;10.90;;;13.50;99.90;;;;;;5014307;28;20483;-79
2021/09/04 02:09:30;;;;;;;25.20;12.20;;;13.50;99.90;;;;;;4996550;28;20391;-79
2021/09/04 02:11:56;;;;;;;36.05;14.10;;;13.50;99.90;;;;;;5014353;28;20061;-79
2021/09/04 02:14:21;;;;;;;46.58;21.05;;;13.30;99.90;;;;;;4996444;28;20056;-79
2021/09/04 02:16:47;;;;;;;52.92;26.00;;;13.50;99.90;;;;;;4996500;28;20129;-80
2021/09/04 02:19:12;;;;;;;49.63;25.50;;;13.40;99.90;;;;;;4996289;28;20022;-80
2021/09/04 02:21:38;;;;;;;52.90;22.38;;;13.40;99.90;;;;;;5014166;28;20101;-79
2021/09/04 02:24:04;;;;;;;34.92;15.85;;;13.40;99.90;;;;;;5013876;28;20047;-79
2021/09/04 02:26:29;;;;;;;32.08;15.52;;;13.30;99.90;;;;;;4996403;28;20026;-80
2021/09/04 02:28:55;;;;;;;34.53;14.10;;;13.30;99.90;;;;;;4996195;28;20029;-79
2021/09/04 02:31:24;;;;;;;29.38;14.85;;;13.30;99.90;;;;;;4996310;28;20041;-79
2021/09/04 02:33:50;;;;;;;33.78;14.02;;;13.30;99.90;;;;;;4996105;28;20080;-79
2021/09/04 02:36:16;;;;;;;30.42;14.25;;;13.20;99.90;;;;;;4996101;28;20117;-79
2021/09/04 02:38:42;;;;;;;35.40;13.85;;;13.20;99.90;;;;;;4996234;28;20045;-78
2021/09/04 02:41:07;;;;;;;41.22;15.45;;;13.20;99.90;;;;;;4995903;28;20112;-79
2021/09/04 02:43:33;;;;;;;33.85;15.30;;;13.20;99.90;;;;;;4996156;28;20041;-79
2021/09/04 02:45:58;;;;;;;31.20;14.70;;;13.10;99.90;;;;;;5013393;28;20108;-79
2021/09/04 02:48:24;;;;;;;42.92;15.63;;;13.20;99.90;;;;;;5013581;28;20105;-79
2021/09/04 02:50:49;;;;;;;47.53;15.82;;;13.10;99.90;;;;;;5012029;28;20434;-79
2021/09/04 02:53:15;;;;;;;36.08;14.00;;;13.10;99.90;;;;;;5013565;28;20547;-79
2021/09/04 02:55:40;;;;;;;38.30;15.18;;;13.20;99.90;;;;;;5012193;28;20618;-80
2021/09/04 02:58:06;;;;;;;33.72;13.55;;;13.10;99.90;;;;;;5013525;28;20387;-79
2021/09/04 03:00:32;;;;;;;36.25;13.02;;;13.10;99.90;;;;;;5012866;28;20022;-79
2021/09/04 03:02:57;;;;;;;31.17;16.50;;;13.00;99.90;;;;;;5013398;28;20022;-79
2021/09/04 03:05:24;;;;;;;36.08;15.20;;;12.90;99.90;;;;;;5011047;28;20037;-79
2021/09/04 03:07:50;;;;;;;44.30;14.98;;;12.90;99.90;;;;;;5013075;28;20030;-80
2021/09/04 03:10:15;;;;;;;35.33;15.82;;;12.90;99.90;;;;;;4995669;28;20032;-79
2021/09/04 03:12:41;;;;;;;41.78;16.80;;;12.80;99.90;;;;;;5011196;28;20042;-79
2021/09/04 03:15:07;;;;;;;40.42;15.85;;;12.80;99.90;;;;;;4995032;28;20029;-79
2021/09/04 03:17:32;;;;;;;46.28;16.05;;;12.80;99.90;;;;;;4995373;28;20030;-80
2021/09/04 03:19:58;;;;;;;46.17;16.98;;;12.70;99.90;;;;;;4995428;28;20041;-80
2021/09/04 03:22:23;;;;;;;38.90;15.48;;;12.70;99.90;;;;;;4995484;28;20028;-79
2021/09/04 03:24:49;;;;;;;37.22;15.88;;;12.70;99.90;;;;;;4995205;28;20049;-79
2021/09/04 03:27:14;;;;;;;41.03;17.23;;;12.60;99.90;;;;;;4994779;28;20040;-79
2021/09/04 03:29:40;;;;;;;48.75;17.55;;;12.60;99.90;;;;;;4994989;28;20121;-79
2021/09/04 03:32:06;;;;;;;40.10;15.43;;;12.40;99.90;;;;;;5012849;28;20517;-79
2021/09/04 03:34:31;;;;;;;55.20;18.23;;;12.40;99.90;;;;;;4994922;28;20518;-79
2021/09/04 03:36:57;;;;;;;42.50;16.40;;;12.30;99.90;;;;;;4994780;28;20433;-79
2021/09/04 03:39:22;;;;;;;51.55;16.05;;;12.10;99.90;;;;;;5012749;28;20026;-79
2021/09/04 03:41:48;;;;;;;38.00;16.67;;;12.10;99.90;;;;;;5012658;28;20440;-79
2021/09/04 03:44:14;;;;;;;39.30;16.58;;;12.00;99.90;;;;;;4994898;28;20029;-80
2021/09/04 03:46:40;;;;;;;53.17;18.15;;;11.90;99.90;;;;;;4994270;28;20030;-79
2021/09/04 03:49:05;;;;;;;57.17;19.75;;;11.90;99.90;;;;;;4994957;28;20482;-79
2021/09/04 03:51:31;;;;;;;44.05;17.17;;;11.80;99.90;;;;;;4994908;28;20433;-79
2021/09/04 03:53:56;;;;;;;46.75;16.98;;;11.80;99.90;;;;;;5011066;28;20542;-79
2021/09/04 03:56:22;;;;;;;49.45;18.30;;;11.80;99.90;;;;;;4994455;28;20497;-79
2021/09/04 03:58:48;;;;;;;55.38;19.15;;;11.60;99.90;;;;;;4994942;28;20034;-79
2021/09/04 04:01:14;;;;;;;44.33;17.52;;;11.60;99.90;;;;;;5012344;28;20022;-79
2021/09/04 04:03:40;;;;;;;44.17;17.73;;;11.50;99.90;;;;;;4994578;28;20554;-79
2021/09/04 04:06:05;;;;;;;38.60;15.43;;;11.40;99.90;;;;;;4994587;28;20124;-79
2021/09/04 04:08:31;;;;;;;36.33;17.42;;;11.30;99.90;;;;;;5012031;28;20058;-79
2021/09/04 04:11:08;;;;;;;48.92;16.85;;;11.30;99.90;;;;;;5011060;28;20037;-79
2021/09/04 04:13:34;;;;;;;40.75;17.52;;;11.10;99.90;;;;;;4994624;28;20030;-79
2021/09/04 04:16:01;;;;;;;44.75;17.52;;;11.10;99.90;;;;;;4994549;28;20144;-78
2021/09/04 04:18:26;;;;;;;41.85;16.88;;;11.00;99.90;;;;;;5011927;28;20368;-79
2021/09/04 04:20:52;;;;;;;45.65;17.33;;;10.90;99.90;;;;;;4994555;28;20033;-79
2021/09/04 04:23:17;;;;;;;43.13;17.30;;;10.80;99.90;;;;;;5012127;28;20053;-79
2021/09/04 04:25:43;;;;;;;52.80;17.88;;;10.80;99.90;;;;;;4994066;28;20121;-79
2021/09/04 04:28:09;;;;;;;37.63;15.75;;;10.80;99.90;;;;;;4994166;28;20076;-79
2021/09/04 04:30:35;;;;;;;44.75;17.38;;;10.80;99.90;;;;;;5010814;28;20025;-79
2021/09/04 04:33:00;;;;;;;75.50;21.00;;;10.80;99.90;;;;;;5012007;28;20367;-79
2021/09/04 04:35:26;;;;;;;50.35;17.88;;;10.80;99.90;;;;;;5011824;28;20037;-79
2021/09/04 04:37:52;;;;;;;68.05;18.90;;;10.80;99.90;;;;;;5010566;28;20049;-79
2021/09/04 04:40:18;;;;;;;63.83;21.10;;;10.80;99.90;;;;;;5011024;28;20109;-79
2021/09/04 04:42:43;;;;;;;59.05;20.50;;;10.90;99.90;;;;;;5011846;28;20042;-79
2021/09/04 04:45:09;;;;;;;59.10;20.48;;;11.00;99.90;;;;;;4994074;28;20528;-80
2021/09/04 04:47:35;;;;;;;62.03;20.33;;;11.20;99.90;;;;;;5011844;28;20030;-79
2021/09/04 04:50:01;;;;;;;63.85;21.00;;;11.20;99.90;;;;;;5011435;28;20032;-79
2021/09/04 04:52:26;;;;;;;55.53;19.00;;;11.10;99.90;;;;;;5010574;28;20057;-79
2021/09/04 04:54:52;;;;;;;44.88;18.50;;;11.10;99.90;;;;;;5011595;28;20085;-79
2021/09/04 04:57:18;;;;;;;56.45;21.10;;;11.20;99.90;;;;;;4994026;28;20486;-79
2021/09/04 04:59:44;;;;;;;68.15;22.00;;;11.40;99.90;;;;;;5011534;28;20014;-79
2021/09/04 05:02:09;;;;;;;63.70;22.65;;;11.50;99.90;;;;;;4994152;28;20487;-79
2021/09/04 05:04:35;;;;;;;52.50;19.10;;;11.60;99.90;;;;;;4993946;28;20026;-79
2021/09/04 05:07:00;;;;;;;80.20;22.83;;;11.70;99.90;;;;;;5010410;28;20498;-79
2021/09/04 05:09:26;;;;;;;51.42;19.92;;;11.80;99.90;;;;;;4993838;28;20017;-79
2021/09/04 05:11:52;;;;;;;68.93;20.45;;;12.00;99.90;;;;;;5011584;28;20029;-79
2021/09/04 05:14:17;;;;;;;62.83;20.75;;;12.00;99.90;;;;;;5011472;28;20030;-79
2021/09/04 05:16:43;;;;;;;59.50;20.33;;;12.10;99.90;;;;;;4993910;28;20018;-79
2021/09/04 05:19:09;;;;;;;46.30;19.38;;;12.10;99.90;;;;;;5011283;28;20033;-79
2021/09/04 05:21:34;;;;;;;47.20;18.67;;;12.10;99.90;;;;;;5011277;28;20465;-79
2021/09/04 05:24:00;;;;;;;70.60;20.45;;;12.00;99.90;;;;;;5011362;28;20061;-79
2021/09/04 05:26:25;;;;;;;61.40;19.58;;;12.00;99.90;;;;;;5010195;28;20026;-79
2021/09/04 05:28:51;;;;;;;65.32;19.40;;;12.00;99.90;;;;;;4993902;28;20115;-79
2021/09/04 05:31:17;;;;;;;54.90;19.13;;;12.00;99.90;;;;;;5009927;28;20022;-79
2021/09/04 05:33:42;;;;;;;69.95;21.63;;;12.10;99.90;;;;;;5009964;28;20030;-79
2021/09/04 05:36:08;;;;;;;54.47;18.92;;;12.00;99.90;;;;;;5010825;28;20121;-79
2021/09/04 05:38:37;;;;;;;71.45;20.15;;;12.10;99.90;;;;;;4997536;28;20553;-79
2021/09/04 05:41:04;;;;;;;76.57;22.25;;;12.10;99.90;;;;;;4996975;28;20032;-79
2021/09/04 05:43:30;;;;;;;70.03;21.55;;;12.20;99.90;;;;;;4997297;28;20022;-79
2021/09/04 05:45:55;;;;;;;64.13;20.98;;;12.30;99.90;;;;;;5014547;28;20029;-79
2021/09/04 05:48:21;;;;;;;73.07;22.55;;;12.30;99.90;;;;;;5014810;28;20487;-79
2021/09/04 05:50:47;;;;;;;65.57;21.10;;;12.40;99.90;;;;;;5014470;28;20426;-79
2021/09/04 05:53:12;;;;;;;59.40;20.33;;;12.40;99.90;;;;;;4997062;28;20029;-79
2021/09/04 05:55:38;;;;;;;66.55;21.77;;;12.50;99.90;;;;;;5014219;28;20033;-79
2021/09/04 05:58:03;;;;;;;62.47;21.35;;;12.60;99.90;;;;;;4996978;28;20037;-79
2021/09/04 06:00:29;;;;;;;74.60;22.27;;;12.50;99.90;;;;;;5013696;28;20475;-79
2021/09/04 06:02:55;;;;;;;64.97;21.58;;;12.70;99.90;;;;;;5013418;28;20029;-79
2021/09/04 06:05:20;;;;;;;72.88;20.80;;;12.80;99.90;;;;;;5013885;28;20109;-79
2021/09/04 06:07:46;;;;;;;66.78;21.10;;;12.90;99.90;;;;;;4996799;28;20557;-79
2021/09/04 06:10:11;;;;;;;52.28;20.92;;;13.00;99.90;;;;;;5014074;28;20080;-79
2021/09/04 06:12:37;;;;;;;52.75;20.33;;;13.00;99.90;;;;;;5013963;28;20045;-79
2021/09/04 06:15:04;;;;;;;56.72;22.08;;;13.00;99.90;;;;;;4996290;28;20037;-79
2021/09/04 06:17:29;;;;;;;67.20;21.30;;;13.10;99.90;;;;;;4996410;28;20080;-78
2021/09/04 06:19:55;;;;;;;59.03;21.67;;;13.20;99.90;;;;;;5014085;28;20568;-78
2021/09/04 06:22:20;;;;;;;68.88;18.55;;;13.20;99.90;;;;;;5013893;28;20026;-79
2021/09/04 06:24:46;;;;;;;55.35;18.83;;;13.40;99.90;;;;;;4996311;28;20030;-78
2021/09/04 06:27:12;;;;;;;47.92;19.35;;;13.60;99.90;;;;;;4996296;28;20036;-79
2021/09/04 06:29:38;;;;;;;51.60;19.10;;;13.80;99.90;;;;;;5013855;28;20106;-78
2021/09/04 06:32:05;;;;;;;52.75;18.77;;;13.90;99.90;;;;;;4996121;28;20040;-79
2021/09/04 06:34:31;;;;;;;50.03;18.13;;;14.00;99.90;;;;;;5012310;28;20490;-79
2021/09/04 06:36:56;;;;;;;49.72;19.13;;;14.20;99.90;;;;;;5013586;28;20046;-78
2021/09/04 06:39:22;;;;;;;46.13;16.70;;;14.30;99.90;;;;;;5013689;28;20026;-79
2021/09/04 06:41:48;;;;;;;46.65;16.98;;;14.40;99.90;;;;;;5012171;28;20068;-78
2021/09/04 06:44:13;;;;;;;41.00;16.10;;;14.50;99.90;;;;;;4995757;28;20022;-79
2021/09/04 06:46:39;;;;;;;42.20;17.52;;;14.60;99.90;;;;;;4995979;28;20037;-78
2021/09/04 06:49:04;;;;;;;47.08;17.25;;;14.50;99.90;;;;;;4995972;28;20022;-80
2021/09/04 06:51:30;;;;;;;42.08;15.88;;;14.50;99.90;;;;;;4995944;28;20029;-79
2021/09/04 06:53:55;;;;;;;43.17;17.33;;;14.60;99.90;;;;;;5012496;28;20026;-79
2021/09/04 06:56:21;;;;;;;56.72;20.40;;;14.80;99.90;;;;;;5013155;28;20375;-79
2021/09/04 06:58:46;;;;;;;40.75;18.50;;;14.90;99.90;;;;;;5013397;28;20131;-79
2021/09/04 07:01:12;;;;;;;49.25;18.85;;;15.00;99.90;;;;;;4995759;28;20026;-78
2021/09/04 07:03:37;;;;;;;46.00;18.45;;;15.10;99.90;;;;;;4995416;28;20030;-79
2021/09/04 07:06:03;;;;;;;46.63;18.63;;;14.90;99.90;;;;;;4995515;28;20022;-79
2021/09/04 07:08:29;;;;;;;47.35;18.73;;;15.00;99.90;;;;;;4995523;28;20052;-79
2021/09/04 07:10:55;;;;;;;39.20;19.05;;;14.90;99.90;;;;;;5000196;28;20022;-79
2021/09/04 07:13:20;;;;;;;40.53;18.35;;;14.90;99.90;;;;;;5001437;28;20092;-80
2021/09/04 07:15:46;;;;;;;50.10;20.58;;;15.00;99.90;;;;;;5008467;28;20084;-79
2021/09/04 07:18:11;;;;;;;42.30;18.98;;;15.00;99.90;;;;;;5017862;28;20026;-79
2021/09/04 07:20:37;;;;;;;43.72;19.20;;;14.80;99.90;;;;;;5008808;28;20022;-79
2021/09/04 07:23:02;;;;;;;43.92;21.10;;;14.80;99.90;;;;;;5010357;28;20038;-79
2021/09/04 07:25:28;;;;;;;55.10;21.67;;;14.70;99.90;;;;;;5008065;28;20026;-79
2021/09/04 07:27:54;;;;;;;45.28;20.73;;;14.80;99.90;;;;;;5028067;28;20032;-79
2021/09/04 07:30:19;;;;;;;52.10;21.35;;;14.80;99.90;;;;;;5027970;28;20037;-79
2021/09/04 07:32:45;;;;;;;65.78;22.98;;;14.90;99.90;;;;;;5012493;28;20441;-84
2021/09/04 07:35:11;;;;;;;51.92;22.88;;;15.00;99.90;;;;;;5011104;28;20950;-79
2021/09/04 07:37:37;;;;;;;50.58;21.15;;;15.10;99.90;;;;;;4995073;28;20037;-79
2021/09/04 07:40:03;;;;;;;69.78;23.02;;;15.20;99.90;;;;;;5012657;28;20559;-78
2021/09/04 07:42:29;;;;;;;67.75;23.42;;;15.20;99.90;;;;;;4994963;28;20192;-79
2021/09/04 07:44:54;;;;;;;54.17;22.10;;;15.30;99.90;;;;;;4994590;28;20647;-80
2021/09/04 07:47:20;;;;;;;44.47;20.50;;;15.30;99.90;;;;;;5012155;28;20038;-80
2021/09/04 07:49:45;;;;;;;53.03;22.08;;;15.50;99.90;;;;;;4994876;28;20026;-83
2021/09/04 07:52:11;;;;;;;51.13;20.85;;;15.60;99.90;;;;;;5012484;28;20029;-81
2021/09/04 07:54:36;;;;;;;60.17;21.42;;;15.40;99.90;;;;;;4994555;28;20089;-81
2021/09/04 07:57:02;;;;;;;53.83;22.50;;;15.70;99.90;;;;;;4994430;28;20034;-81
2021/09/04 07:59:28;;;;;;;43.58;21.02;;;15.50;99.90;;;;;;5011895;28;20108;-82
2021/09/04 08:01:53;;;;;;;55.20;23.40;;;15.70;99.90;;;;;;5011303;28;20026;-81
2021/09/04 08:04:19;;;;;;;60.50;27.65;;;15.70;99.90;;;;;;5010965;28;20033;-80
2021/09/04 08:06:44;;;;;;;109.22;46.97;;;15.70;99.90;;;;;;4994242;28;20022;-82
2021/09/04 08:09:10;;;;;;;62.40;30.00;;;15.80;99.90;;;;;;4994739;28;20038;-81
2021/09/04 08:11:35;;;;;;;86.95;38.10;;;16.00;99.90;;;;;;4994638;28;20133;-78
2021/09/04 08:14:01;;;;;;;50.50;23.92;;;15.80;99.90;;;;;;5012070;28;20083;-78
2021/09/04 08:16:27;;;;;;;51.28;23.50;;;15.80;99.90;;;;;;5011815;28;20393;-78
2021/09/04 08:18:52;;;;;;;171.27;86.80;;;15.60;99.90;;;;;;5011901;28;20037;-79
2021/09/04 08:21:18;;;;;;;85.45;35.15;;;15.70;99.90;;;;;;4994466;28;20025;-78
2021/09/04 08:23:43;;;;;;;53.20;21.05;;;15.80;99.90;;;;;;5011730;28;20071;-79
2021/09/04 08:26:09;;;;;;;50.03;21.38;;;15.90;99.90;;;;;;5011883;28;20113;-78
2021/09/04 08:28:34;;;;;;;62.17;31.48;;;16.00;99.90;;;;;;5011568;28;20402;-79
2021/09/04 08:31:00;;;;;;;40.60;21.27;;;16.00;99.90;;;;;;5011999;28;20153;-79
2021/09/04 08:33:25;;;;;;;63.33;28.33;;;16.10;99.90;;;;;;4994336;28;20034;-81
2021/09/04 08:35:51;;;;;;;43.58;21.77;;;16.20;99.90;;;;;;4993894;28;20034;-81
2021/09/04 08:38:17;;;;;;;112.40;45.25;;;16.20;99.90;;;;;;4994036;28;20037;-81
2021/09/04 08:40:43;;;;;;;51.45;23.73;;;16.40;99.90;;;;;;4994184;28;20026;-81
2021/09/04 08:43:10;;;;;;;59.80;23.50;;;16.40;99.90;;;;;;5011862;28;20105;-80
2021/09/04 08:45:36;;;;;;;46.13;20.15;;;16.40;99.90;;;;;;4993941;28;20018;-81
2021/09/04 08:48:03;;;;;;;44.25;20.58;;;16.50;99.90;;;;;;5011726;28;20461;-81
2021/09/04 08:50:29;;;;;;;39.80;19.30;;;16.60;99.90;;;;;;4993644;28;20058;-80
2021/09/04 08:52:55;;;;;;;46.83;23.90;;;16.70;99.90;;;;;;4994095;28;20130;-80
2021/09/04 08:55:22;;;;;;;52.53;26.30;;;16.70;99.90;;;;;;5011457;28;20651;-79
2021/09/04 08:57:49;;;;;;;54.03;24.50;;;16.70;99.90;;;;;;4994045;28;20040;-80
2021/09/04 09:00:29;;;;;;;57.92;21.10;;;16.80;99.90;;;;;;4993872;28;20026;-80
2021/09/04 09:02:55;;;;;;;49.85;22.40;;;16.80;99.90;;;;;;4994027;28;20018;-80
2021/09/04 09:05:20;;;;;;;47.67;19.45;;;16.90;99.90;;;;;;5010034;28;20072;-80
2021/09/04 09:07:47;;;;;;;47.30;19.75;;;16.90;99.90;;;;;;4994091;28;20022;-80
2021/09/04 09:10:22;;;;;;;40.60;19.17;;;17.00;99.90;;;;;;5010031;28;20502;-80
2021/09/04 09:12:51;;;;;;;36.53;17.33;;;17.20;99.90;;;;;;4997494;28;20026;-81
2021/09/04 09:15:21;;;;;;;45.30;19.13;;;17.40;99.90;;;;;;5015103;28;20451;-80
2021/09/04 09:18:09;;;;;;;37.20;17.80;;;17.50;99.90;;;;;;5015018;28;20565;-79
2021/09/04 09:20:35;;;;;;;40.17;19.08;;;17.60;99.90;;;;;;4997520;28;20033;-80
2021/09/04 09:23:17;;;;;;;48.65;16.92;;;18.00;99.90;;;;;;5015146;28;20055;-80
2021/09/04 09:25:45;;;;;;;36.83;17.92;;;18.40;99.90;;;;;;5006997;28;20030;-82
2021/09/04 09:28:13;;;;;;;36.42;15.70;;;18.80;99.90;;;;;;5010455;28;20033;-80
2021/09/04 09:30:50;;;;;;;36.72;17.35;;;19.00;99.90;;;;;;4995270;28;20536;-81
2021/09/04 09:33:20;;;;;;;37.13;17.77;;;19.30;99.90;;;;;;5003658;28;20029;-81
2021/09/04 09:35:48;;;;;;;33.40;17.63;;;19.50;99.90;;;;;;5012844;28;20517;-81
2021/09/04 09:38:20;;;;;;;46.40;17.90;;;19.90;99.90;;;;;;5010068;28;20511;-80
2021/09/04 09:40:50;;;;;;;33.03;15.57;;;20.30;99.90;;;;;;5014959;28;20037;-78
2021/09/04 09:43:16;;;;;;;31.95;14.95;;;20.50;99.90;;;;;;4993762;28;20026;-80
2021/09/04 09:45:50;;;;;;;32.78;16.10;;;20.60;99.90;;;;;;5011370;28;20025;-80
2021/09/04 09:48:18;;;;;;;35.20;16.05;;;20.50;99.90;;;;;;5003066;28;20026;-79
2021/09/04 09:50:44;;;;;;;33.97;14.88;;;20.30;99.90;;;;;;5010700;28;20030;-80
2021/09/04 09:53:10;;;;;;;33.60;15.20;;;20.30;99.90;;;;;;5010277;28;20490;-80
2021/09/04 09:55:35;;;;;;;28.52;15.30;;;20.40;99.90;;;;;;5018980;28;20030;-81
2021/09/04 09:58:01;;;;;;;31.15;14.27;;;20.50;99.90;;;;;;4998964;28;20118;-79
2021/09/04 10:00:29;;;;;;;31.88;14.68;;;20.30;99.90;;;;;;5026106;28;20029;-79
2021/09/04 10:02:59;;;;;;;36.35;14.77;;;20.20;99.90;;;;;;4999995;28;20050;-78
2021/09/04 10:05:29;;;;;;;29.30;15.60;;;20.50;99.90;;;;;;5025531;28;20025;-79
2021/09/04 10:07:57;;;;;;;32.17;13.70;;;21.00;99.90;;;;;;5011449;28;20033;-79
2021/09/04 10:10:26;;;;;;;31.98;14.65;;;21.40;99.90;;;;;;5010676;28;20026;-78
2021/09/04 10:12:52;;;;;;;36.00;14.45;;;21.90;99.90;;;;;;5010968;28;20453;-79
2021/09/04 10:15:20;;;;;;;25.38;13.25;;;21.70;99.90;;;;;;5024572;28;20058;-78
2021/09/04 10:17:49;;;;;;;28.40;13.65;;;21.90;99.90;;;;;;5016471;28;20060;-78
2021/09/04 10:20:14;;;;;;;30.33;14.48;;;21.60;99.90;;;;;;5010921;28;20045;-78
2021/09/04 10:22:41;;;;;;;35.17;16.58;;;21.10;99.90;;;;;;5010238;28;20478;-79
2021/09/04 10:25:19;;;;;;;26.88;14.13;;;21.10;99.90;;;;;;5010077;28;20479;-78
2021/09/04 10:27:47;;;;;;;32.78;15.30;;;21.10;99.90;;;;;;4993134;28;20041;-77
2021/09/04 10:30:52;;;;;;;30.02;14.70;;;20.80;99.90;;;;;;5026050;28;20053;-78
2021/09/04 10:33:17;;;;;;;31.55;14.57;;;20.80;99.90;;;;;;4955570;28;20124;-78
2021/09/04 10:35:49;;;;;;;39.13;14.00;;;20.90;99.90;;;;;;5012237;28;20168;-77
2021/09/04 10:38:18;;;;;;;27.60;13.25;;;21.50;99.90;;;;;;4995580;28;20033;-76
2021/09/04 10:40:45;;;;;;;33.28;12.90;;;22.00;99.90;;;;;;5013847;28;20026;-77
2021/09/04 10:43:13;;;;;;;32.03;12.80;;;22.60;99.90;;;;;;5013395;28;20029;-78
2021/09/04 10:45:38;;;;;;;27.80;12.82;;;22.90;99.90;;;;;;5013446;28;20018;-77
2021/09/04 10:48:14;;;;;;;30.45;13.68;;;23.30;99.90;;;;;;4996012;28;20032;-78
2021/09/04 10:50:41;;;;;;;25.38;13.27;;;23.30;99.90;;;;;;5013646;28;20482;-78
2021/09/04 10:53:09;;;;;;;24.30;11.77;;;23.10;99.90;;;;;;5013216;28;20032;-77
2021/09/04 10:55:40;;;;;;;26.10;12.45;;;23.20;99.90;;;;;;5013151;28;20018;-77
2021/09/04 10:58:17;;;;;;;21.00;11.63;;;23.60;99.90;;;;;;5013640;28;20434;-79
2021/09/04 11:00:50;;;;;;;30.38;12.50;;;23.70;99.90;;;;;;5013013;28;20056;-76
2021/09/04 11:03:19;;;;;;;21.73;11.95;;;24.00;99.90;;;;;;5001792;28;20029;-78
2021/09/04 11:06:01;;;;;;;20.27;11.10;;;24.20;99.90;;;;;;5008601;28;20033;-77
2021/09/04 11:08:31;;;;;;;23.58;12.65;;;24.40;99.90;;;;;;5001120;28;20107;-77
2021/09/04 11:11:08;;;;;;;25.00;12.90;;;24.30;99.90;;;;;;4998448;28;20088;-77
2021/09/04 11:13:39;;;;;;;28.95;11.98;;;24.20;99.90;;;;;;5009007;28;20113;-77
2021/09/04 11:16:32;;;;;;;22.63;13.23;;;23.90;99.90;;;;;;5008694;28;20037;-78
2021/09/04 11:19:02;;;;;;;24.10;13.18;;;23.70;99.90;;;;;;5008862;28;20086;-78
2021/09/04 11:21:30;;;;;;;27.38;13.27;;;23.80;99.90;;;;;;5008591;28;20029;-78
2021/09/04 11:23:57;;;;;;;22.90;10.93;;;24.10;99.90;;;;;;5008344;28;20045;-78
2021/09/04 11:26:22;;;;;;;19.33;11.70;;;24.30;99.90;;;;;;5009002;28;20033;-78
2021/09/04 11:28:56;;;;;;;31.85;12.90;;;24.40;99.90;;;;;;5008522;28;20574;-78
2021/09/04 11:31:22;;;;;;;21.52;11.15;;;24.20;99.90;;;;;;4999772;28;20030;-78
2021/09/04 11:33:53;;;;;;;20.42;11.38;;;24.50;99.90;;;;;;5012029;28;20537;-77
2021/09/04 11:36:29;;;;;;;30.50;15.27;;;24.70;99.90;;;;;;5012823;28;20822;-77
2021/09/04 11:38:55;;;;;;;17.23;10.20;;;24.50;99.90;;;;;;5012684;28;20022;-78
2021/09/04 11:41:20;;;;;;;27.85;10.85;;;24.20;99.90;;;;;;4995174;28;20635;-77
2021/09/04 11:43:46;;;;;;;15.43;9.48;;;24.40;99.90;;;;;;5012153;28;20026;-78
2021/09/04 11:46:12;;;;;;;18.73;9.65;;;24.90;99.90;;;;;;5012605;28;20030;-78
2021/09/04 11:48:37;;;;;;;15.75;8.95;;;25.40;99.90;;;;;;4995113;28;20084;-78
2021/09/04 11:51:05;;;;;;;14.43;7.18;;;25.50;99.90;;;;;;5012424;28;20053;-78
2021/09/04 11:53:30;;;;;;;14.75;8.07;;;25.00;99.90;;;;;;4992249;28;20115;-78
2021/09/04 11:55:56;;;;;;;19.88;8.98;;;25.10;99.90;;;;;;5004997;28;20475;-78
2021/09/04 11:58:21;;;;;;;17.20;7.93;;;25.10;99.90;;;;;;5004350;28;20568;-78
2021/09/04 12:00:47;;;;;;;12.45;7.43;;;24.80;99.90;;;;;;5008812;28;20510;-78
2021/09/04 12:03:13;;;;;;;15.63;8.20;;;24.50;99.90;;;;;;5007922;28;20080;-78
2021/09/04 12:05:46;;;;;;;15.35;8.20;;;24.60;99.90;;;;;;5007984;28;20525;-77
2021/09/04 12:08:21;;;;;;;19.08;7.90;;;24.60;99.90;;;;;;5008407;28;20033;-78
2021/09/04 12:10:47;;;;;;;17.33;8.52;;;24.50;99.90;;;;;;5008197;28;20064;-77
2021/09/04 12:13:24;;;;;;;14.65;8.07;;;24.30;99.90;;;;;;5015494;28;20029;-77
2021/09/04 12:15:55;;;;;;;19.02;7.68;;;24.20;99.90;;;;;;5000016;28;20407;-77
2021/09/04 12:18:32;;;;;;;13.13;7.95;;;24.00;99.90;;;;;;4990808;28;20030;-79
2021/09/04 12:21:17;;;;;;;18.52;7.75;;;23.60;99.90;;;;;;5007680;28;20037;-78
2021/09/04 12:23:47;;;;;;;17.90;7.22;;;24.00;99.90;;;;;;5007108;28;20386;-77
2021/09/04 12:26:12;;;;;;;12.50;7.28;;;25.00;99.90;;;;;;5007733;28;20026;-78